createdAt,value
2022-08-01T01:30:34.811Z,100.00
2022-08-01T01:33:03.836Z,100.00
2022-08-01T01:35:36.918Z,100.00
2022-08-01T01:38:11.953Z,100.00
2022-08-01T01:40:42.131Z,100.00
2022-08-01T01:43:11.338Z,100.00
2022-08-01T01:45:38.659Z,100.00
2022-08-01T01:48:07.334Z,100.00
2022-08-01T01:50:35.062Z,100.00
2022-08-01T01:53:02.916Z,100.00
2022-08-01T01:55:29.877Z,100.00
2022-08-01T01:57:57.193Z,100.00
2022-08-01T02:00:27.854Z,100.00
2022-08-01T02:02:55.175Z,100.00
2022-08-01T02:05:22.168Z,100.00
2022-08-01T02:07:49.273Z,100.00
2022-08-01T02:10:16.891Z,100.00
2022-08-01T02:12:46.621Z,100.00
2022-08-01T02:15:14.374Z,100.00
2022-08-01T02:17:44.864Z,100.00
2022-08-01T02:20:11.928Z,100.00
2022-08-01T02:22:42.189Z,100.00
2022-08-01T02:25:28.348Z,100.00
2022-08-01T02:28:07.439Z,100.00
2022-08-01T02:30:36.650Z,100.00
2022-08-01T02:33:15.750Z,100.00
2022-08-01T02:36:29.730Z,100.00
2022-08-01T02:38:41.854Z,100.00
2022-08-01T02:41:10.859Z,100.00
2022-08-01T02:43:39.091Z,100.00
2022-08-01T02:46:07.699Z,100.00
2022-08-01T02:48:36.157Z,100.00
2022-08-01T02:51:03.366Z,100.00
2022-08-01T02:53:43.788Z,100.00
2022-08-01T02:56:11.466Z,100.00
2022-08-01T02:58:38.978Z,100.00
2022-08-01T03:01:07.372Z,100.00
2022-08-01T03:03:35.987Z,100.00
2022-08-01T03:06:03.746Z,100.00
2022-08-01T03:08:31.057Z,100.00
2022-08-01T03:10:59.443Z,100.00
2022-08-01T03:13:26.560Z,100.00
2022-08-01T03:15:54.637Z,100.00
2022-08-01T03:18:24.038Z,100.00
2022-08-01T03:20:51.637Z,100.00
2022-08-01T03:23:18.378Z,100.00
2022-08-01T03:25:45.738Z,100.00
2022-08-01T03:28:14.713Z,100.00
2022-08-01T03:30:41.859Z,100.00
2022-08-01T03:33:08.718Z,100.00
2022-08-01T03:35:39.039Z,100.00
2022-08-01T03:38:16.042Z,100.00
2022-08-01T03:40:49.889Z,100.00
2022-08-01T03:43:20.601Z,100.00
2022-08-01T03:45:50.962Z,100.00
2022-08-01T03:48:19.158Z,100.00
2022-08-01T03:50:51.763Z,100.00
2022-08-01T03:53:22.610Z,100.00
2022-08-01T03:55:49.743Z,100.00
2022-08-01T03:58:16.716Z,100.00
2022-08-01T04:00:43.629Z,100.00
2022-08-01T04:03:11.566Z,100.00
2022-08-01T04:05:38.180Z,100.00
2022-08-01T04:08:05.074Z,100.00
2022-08-01T04:10:31.798Z,100.00
2022-08-01T04:12:58.391Z,100.00
2022-08-01T04:15:25.442Z,100.00
2022-08-01T04:17:52.142Z,100.00
2022-08-01T04:20:18.933Z,100.00
2022-08-01T04:22:45.546Z,100.00
2022-08-01T04:25:18.828Z,100.00
2022-08-01T04:27:49.153Z,100.00
2022-08-01T04:30:24.431Z,100.00
2022-08-01T04:32:52.199Z,100.00
2022-08-01T04:35:23.347Z,100.00
2022-08-01T04:38:07.301Z,100.00
2022-08-01T04:40:36.816Z,100.00
2022-08-01T04:43:03.866Z,100.00
2022-08-01T04:45:30.764Z,100.00
2022-08-01T04:47:58.495Z,100.00
2022-08-01T04:50:25.439Z,100.00
2022-08-01T04:52:52.633Z,100.00
2022-08-01T04:55:19.369Z,100.00
2022-08-01T04:57:47.570Z,100.00
2022-08-01T05:00:14.771Z,100.00
2022-08-01T05:02:41.396Z,100.00
2022-08-01T05:05:08.489Z,100.00
2022-08-01T05:07:45.566Z,100.00
2022-08-01T05:10:12.989Z,100.00
2022-08-01T05:12:39.727Z,100.00
2022-08-01T05:15:11.762Z,100.00
2022-08-01T05:17:43.254Z,100.00
2022-08-01T05:20:11.004Z,100.00
2022-08-01T05:22:37.602Z,100.00
2022-08-01T05:25:05.954Z,100.00
2022-08-01T05:27:32.856Z,100.00
2022-08-01T05:30:00.562Z,100.00
2022-08-01T05:32:28.227Z,100.00
2022-08-01T05:34:54.954Z,100.00
2022-08-01T05:37:21.561Z,100.00
2022-08-01T05:39:48.161Z,100.00
2022-08-01T05:42:14.771Z,100.00
2022-08-01T05:44:41.472Z,100.00
2022-08-01T05:47:08.178Z,100.00
2022-08-01T05:49:34.862Z,100.00
2022-08-01T05:52:03.047Z,100.00
2022-08-01T05:54:30.169Z,100.00
2022-08-01T05:57:00.526Z,100.00
2022-08-01T05:59:27.565Z,100.00
2022-08-01T06:01:54.237Z,100.00
2022-08-01T06:04:20.971Z,100.00
2022-08-01T06:06:47.629Z,100.00
2022-08-01T06:09:14.272Z,100.00
2022-08-01T06:11:40.988Z,100.00
2022-08-01T06:14:07.679Z,100.00
2022-08-01T06:16:34.306Z,100.00
2022-08-01T06:19:00.907Z,100.00
2022-08-01T06:21:27.520Z,100.00
2022-08-01T06:23:54.178Z,100.00
2022-08-01T06:26:21.089Z,100.00
2022-08-01T06:28:47.758Z,100.00
2022-08-01T06:31:15.677Z,100.00
2022-08-01T06:33:42.477Z,100.00
2022-08-01T06:36:10.240Z,100.00
2022-08-01T06:38:37.055Z,100.00
2022-08-01T06:41:03.697Z,100.00
2022-08-01T06:43:33.171Z,100.00
2022-08-01T06:45:59.802Z,100.00
2022-08-01T06:48:27.470Z,100.00
2022-08-01T06:51:09.024Z,100.00
2022-08-01T06:53:39.305Z,99.90
2022-08-01T06:56:06.722Z,94.77
2022-08-01T06:58:33.505Z,87.67
2022-08-01T07:01:00.352Z,84.25
2022-08-01T07:03:53.984Z,84.81
2022-08-01T07:06:16.040Z,85.33
2022-08-01T07:08:42.683Z,86.47
2022-08-01T07:11:09.300Z,84.96
2022-08-01T07:13:36.941Z,88.11
2022-08-01T07:16:15.770Z,89.66
2022-08-01T07:18:42.496Z,89.40
2022-08-01T07:21:12.767Z,87.64
2022-08-01T07:23:56.014Z,91.17
2022-08-01T07:26:23.235Z,91.87
2022-08-01T07:28:49.907Z,92.25
2022-08-01T07:31:16.496Z,90.23
2022-08-01T07:33:48.373Z,92.70
2022-08-01T07:36:19.855Z,93.66
2022-08-01T07:38:47.061Z,93.76
2022-08-01T07:41:13.915Z,92.22
2022-08-01T07:43:40.545Z,94.40
2022-08-01T07:46:12.238Z,94.04
2022-08-01T07:48:38.908Z,93.75
2022-08-01T07:51:05.761Z,95.72
2022-08-01T07:53:32.396Z,95.10
2022-08-01T07:55:59.906Z,95.78
2022-08-01T07:58:26.624Z,95.31
2022-08-01T08:00:53.281Z,95.95
2022-08-01T08:03:19.915Z,95.99
2022-08-01T08:05:58.269Z,93.62
2022-08-01T08:08:27.300Z,91.89
2022-08-01T08:10:53.972Z,92.06
2022-08-01T08:13:22.119Z,92.64
2022-08-01T08:15:49.026Z,92.10
2022-08-01T08:18:16.305Z,92.78
2022-08-01T08:20:43.188Z,93.32
2022-08-01T08:23:42.252Z,93.38
2022-08-01T08:26:11.783Z,92.63
2022-08-01T08:28:38.632Z,91.72
2022-08-01T08:31:07.499Z,89.76
2022-08-01T08:33:52.784Z,89.68
2022-08-01T08:36:19.431Z,89.22
2022-08-01T08:38:46.056Z,86.34
2022-08-01T08:41:13.785Z,88.04
2022-08-01T08:43:42.627Z,87.24
2022-08-01T08:46:09.597Z,85.84
2022-08-01T08:48:37.487Z,85.64
2022-08-01T08:51:04.237Z,85.51
2022-08-01T08:53:34.858Z,83.98
2022-08-01T08:56:02.076Z,85.15
2022-08-01T08:58:31.628Z,83.93
2022-08-01T09:00:59.065Z,83.29
2022-08-01T09:03:26.017Z,81.69
2022-08-01T09:05:52.737Z,79.62
2022-08-01T09:08:19.381Z,78.16
2022-08-01T09:10:45.973Z,77.00
2022-08-01T09:13:14.457Z,77.83
2022-08-01T09:15:45.559Z,79.16
2022-08-01T09:18:30.279Z,79.22
2022-08-01T09:21:21.134Z,78.91
2022-08-01T09:23:53.614Z,79.31
2022-08-01T09:26:37.077Z,80.35
2022-08-01T09:29:06.073Z,79.07
2022-08-01T09:31:42.792Z,79.59
2022-08-01T09:34:15.046Z,80.15
2022-08-01T09:37:02.499Z,81.46
2022-08-01T09:39:31.217Z,82.13
2022-08-01T09:41:59.711Z,83.86
2022-08-01T09:44:44.801Z,82.95
2022-08-01T09:47:23.724Z,81.56
2022-08-01T09:49:57.379Z,81.38
2022-08-01T09:52:29.356Z,81.37
2022-08-01T09:55:05.251Z,78.19
2022-08-01T09:57:31.999Z,75.21
2022-08-01T10:00:01.622Z,75.64
2022-08-01T10:02:35.950Z,74.43
2022-08-01T10:05:08.421Z,75.07
2022-08-01T10:07:43.681Z,73.36
2022-08-01T10:10:15.695Z,74.72
2022-08-01T10:12:45.175Z,74.49
2022-08-01T10:15:12.885Z,76.67
2022-08-01T10:17:50.401Z,77.11
2022-08-01T10:20:30.127Z,78.41
2022-08-01T10:23:06.170Z,78.84
2022-08-01T10:25:43.035Z,78.72
2022-08-01T10:28:21.506Z,78.39
2022-08-01T10:30:53.080Z,78.57
2022-08-01T10:33:50.559Z,80.10
2022-08-01T10:36:10.830Z,81.88
2022-08-01T10:38:38.236Z,83.89
2022-08-01T10:41:08.589Z,79.75
2022-08-01T10:43:36.394Z,80.21
2022-08-01T10:46:05.959Z,79.22
2022-08-01T10:48:47.230Z,75.65
2022-08-01T10:51:17.905Z,77.27
2022-08-01T10:53:54.280Z,75.12
2022-08-01T10:56:27.226Z,72.68
2022-08-01T10:59:06.682Z,72.21
2022-08-01T11:01:38.285Z,73.79
2022-08-01T11:04:16.442Z,77.37
2022-08-01T11:06:46.382Z,85.60
2022-08-01T11:09:16.378Z,92.18
2022-08-01T11:12:02.771Z,100.00
2022-08-01T11:14:53.918Z,100.00
2022-08-01T11:17:42.881Z,100.00
2022-08-01T11:20:14.082Z,100.00
2022-08-01T11:22:59.749Z,100.00
2022-08-01T11:26:06.087Z,100.00
2022-08-01T11:28:33.310Z,100.00
2022-08-01T11:31:11.792Z,100.00
2022-08-01T11:33:40.812Z,100.00
2022-08-01T11:36:14.811Z,100.00
2022-08-01T11:38:50.265Z,100.00
2022-08-01T11:41:37.227Z,100.00
2022-08-01T11:44:17.186Z,100.00
2022-08-01T11:46:49.755Z,100.00
2022-08-01T11:49:29.337Z,100.00
2022-08-01T11:52:05.238Z,100.00
2022-08-01T11:54:44.245Z,100.00
2022-08-01T11:57:16.331Z,100.00
2022-08-01T11:59:59.891Z,100.00
2022-08-01T12:02:35.128Z,100.00
2022-08-01T12:05:05.174Z,100.00
2022-08-01T12:07:33.282Z,100.00
2022-08-01T12:10:10.355Z,100.00
2022-08-01T12:12:38.153Z,100.00
2022-08-01T12:15:10.130Z,96.75
2022-08-01T12:17:59.016Z,95.35
2022-08-01T12:20:30.289Z,98.07
2022-08-01T12:22:58.927Z,89.36
2022-08-01T12:25:25.586Z,88.33
2022-08-01T12:27:56.569Z,84.74
2022-08-01T12:30:25.048Z,85.34
2022-08-01T12:32:53.278Z,79.65
2022-08-01T12:35:25.236Z,81.12
2022-08-01T12:37:57.053Z,84.77
2022-08-01T12:40:27.793Z,84.96
2022-08-01T12:43:05.501Z,84.66
2022-08-01T12:45:38.005Z,86.55
2022-08-01T12:48:08.933Z,84.26
2022-08-01T12:50:38.710Z,84.67
2022-08-01T12:53:07.070Z,84.74
2022-08-01T12:55:34.808Z,86.48
2022-08-01T12:58:16.102Z,84.48
2022-08-01T13:00:45.268Z,84.51
2022-08-01T13:03:20.062Z,87.31
2022-08-01T13:05:49.265Z,85.10
2022-08-01T13:08:17.377Z,84.39
2022-08-01T13:10:44.626Z,81.29
2022-08-01T13:13:12.225Z,81.14
2022-08-01T13:16:03.590Z,79.53
2022-08-01T13:18:31.945Z,79.52
2022-08-01T13:21:15.216Z,80.31
2022-08-01T13:24:04.801Z,81.81
2022-08-01T13:26:49.394Z,81.11
2022-08-01T13:29:21.663Z,82.09
2022-08-01T13:31:48.728Z,82.42
2022-08-01T13:34:16.579Z,80.34
2022-08-01T13:36:49.143Z,81.16
2022-08-01T13:39:34.839Z,81.87
2022-08-01T13:42:01.504Z,83.89
2022-08-01T13:44:28.207Z,81.82
2022-08-01T13:46:54.863Z,82.23
2022-08-01T13:49:22.885Z,83.17
2022-08-01T13:51:51.577Z,82.21
2022-08-01T13:54:18.851Z,82.63
2022-08-01T13:56:45.511Z,83.31
2022-08-01T13:59:12.166Z,81.22
2022-08-01T14:01:38.807Z,81.29
2022-08-01T14:04:05.483Z,77.13
2022-08-01T14:06:32.690Z,77.02
2022-08-01T14:08:59.332Z,76.66
2022-08-01T14:11:30.669Z,75.06
2022-08-01T14:14:04.785Z,72.12
2022-08-01T14:16:35.327Z,67.78
2022-08-01T14:19:03.947Z,68.40
2022-08-01T14:21:30.694Z,67.95
2022-08-01T14:23:57.346Z,69.44
2022-08-01T14:26:23.971Z,70.23
2022-08-01T14:28:53.768Z,66.29
2022-08-01T14:31:20.403Z,67.62
2022-08-01T14:33:47.032Z,68.06
2022-08-01T14:36:28.999Z,65.48
2022-08-01T14:39:00.580Z,63.54
2022-08-01T14:41:28.454Z,63.71
2022-08-01T14:43:57.460Z,63.39
2022-08-01T14:46:24.118Z,62.83
2022-08-01T14:48:50.830Z,62.81
2022-08-01T14:51:17.515Z,62.18
2022-08-01T14:53:46.821Z,61.95
2022-08-01T14:56:18.345Z,62.45
2022-08-01T14:58:45.171Z,62.82
2022-08-01T15:01:11.838Z,61.58
2022-08-01T15:03:38.561Z,61.17
2022-08-01T15:06:07.276Z,62.01
2022-08-01T15:08:34.013Z,61.20
2022-08-01T15:11:02.106Z,61.24
2022-08-01T15:13:28.950Z,62.08
2022-08-01T15:15:55.581Z,61.48
2022-08-01T15:18:28.441Z,59.50
2022-08-01T15:20:55.537Z,59.77
2022-08-01T15:23:22.681Z,57.72
2022-08-01T15:25:50.055Z,59.62
2022-08-01T15:28:16.716Z,60.27
2022-08-01T15:30:43.490Z,60.04
2022-08-01T15:33:10.125Z,60.99
2022-08-01T15:35:36.981Z,60.05
2022-08-01T15:38:03.756Z,59.43
2022-08-01T15:40:30.511Z,61.30
2022-08-01T15:42:57.107Z,61.84
2022-08-01T15:48:11.916Z,61.28
2022-08-01T15:50:39.503Z,61.73
2022-08-01T15:53:06.904Z,63.34
2022-08-01T15:55:38.287Z,63.82
2022-08-01T15:58:06.028Z,65.05
2022-08-01T16:00:39.649Z,66.68
2022-08-01T16:03:07.817Z,66.87
2022-08-01T16:05:42.556Z,67.09
2022-08-01T16:08:11.369Z,67.64
2022-08-01T16:10:37.991Z,67.69
2022-08-01T16:13:07.062Z,66.11
2022-08-01T16:15:37.026Z,67.02
2022-08-01T16:18:08.022Z,67.81
2022-08-01T16:20:35.381Z,67.76
2022-08-01T16:23:02.003Z,67.89
2022-08-01T16:25:28.745Z,68.43
2022-08-01T16:27:55.527Z,69.34
2022-08-01T16:30:22.228Z,69.14
2022-08-01T16:32:51.573Z,69.81
2022-08-01T16:35:28.195Z,68.63
2022-08-01T16:38:03.418Z,69.57
2022-08-01T16:40:30.083Z,69.37
2022-08-01T16:42:58.568Z,69.04
2022-08-01T16:45:25.506Z,70.23
2022-08-01T16:47:52.368Z,69.38
2022-08-01T16:50:19.109Z,69.56
2022-08-01T16:52:54.997Z,68.89
2022-08-01T16:55:24.842Z,67.97
2022-08-01T16:57:51.780Z,68.24
2022-08-01T17:00:21.295Z,67.51
2022-08-01T17:02:49.562Z,68.79
2022-08-01T17:05:16.260Z,66.57
2022-08-01T17:07:42.862Z,67.19
2022-08-01T17:10:09.924Z,69.24
2022-08-01T17:12:36.743Z,68.14
2022-08-01T17:15:03.898Z,67.89
2022-08-01T17:17:30.541Z,68.69
2022-08-01T17:19:57.213Z,68.60
2022-08-01T17:22:23.923Z,68.83
2022-08-01T17:24:52.145Z,70.34
2022-08-01T17:27:19.361Z,69.94
2022-08-01T17:29:46.232Z,69.84
2022-08-01T17:32:13.493Z,70.94
2022-08-01T17:34:41.473Z,71.07
2022-08-01T17:37:08.725Z,70.33
2022-08-01T17:39:39.182Z,70.86
2022-08-01T17:42:10.976Z,71.32
2022-08-01T17:44:37.777Z,72.28
2022-08-01T17:47:05.443Z,73.31
2022-08-01T17:49:54.275Z,72.88
2022-08-01T17:52:19.033Z,73.24
2022-08-01T17:54:45.878Z,73.55
2022-08-01T17:57:12.762Z,73.94
2022-08-01T17:59:39.521Z,75.72
2022-08-01T18:02:06.259Z,74.61
2022-08-01T18:04:33.884Z,75.96
2022-08-01T18:07:01.644Z,75.79
2022-08-01T18:09:32.769Z,76.94
2022-08-01T18:12:01.993Z,77.73
2022-08-01T18:14:39.903Z,78.57
2022-08-01T18:17:08.640Z,79.51
2022-08-01T18:19:39.217Z,81.06
2022-08-01T18:22:28.801Z,81.85
2022-08-01T18:24:53.118Z,82.97
2022-08-01T18:27:19.834Z,84.00
2022-08-01T18:29:48.142Z,84.67
2022-08-01T18:32:15.582Z,85.99
2022-08-01T18:34:42.348Z,86.59
2022-08-01T18:37:12.103Z,87.80
2022-08-01T18:39:40.267Z,88.48
2022-08-01T18:42:07.160Z,89.60
2022-08-01T18:44:33.913Z,90.79
2022-08-01T18:47:00.654Z,91.35
2022-08-01T18:49:27.437Z,92.90
2022-08-01T18:51:54.313Z,93.14
2022-08-01T18:54:21.122Z,94.29
2022-08-01T18:56:47.835Z,95.29
2022-08-01T18:59:14.629Z,96.66
2022-08-01T19:01:42.620Z,97.60
2022-08-01T19:04:10.187Z,98.40
2022-08-01T19:06:37.643Z,99.34
2022-08-01T19:09:05.028Z,100.00
2022-08-01T19:11:33.151Z,100.00
2022-08-01T19:14:00.192Z,100.00
2022-08-01T19:16:27.816Z,100.00
2022-08-01T19:18:54.720Z,100.00
2022-08-01T19:21:22.423Z,100.00
2022-08-01T19:24:07.695Z,100.00
2022-08-01T19:26:34.940Z,100.00
2022-08-01T19:29:06.161Z,100.00
2022-08-01T19:31:32.909Z,100.00
2022-08-01T19:34:02.980Z,100.00
2022-08-01T19:36:29.855Z,100.00
2022-08-01T19:38:57.406Z,100.00
2022-08-01T19:41:24.131Z,100.00
2022-08-01T19:43:51.183Z,100.00
2022-08-01T19:46:18.347Z,100.00
2022-08-01T19:48:49.905Z,100.00
2022-08-01T19:51:21.515Z,100.00
2022-08-01T19:53:55.545Z,100.00
2022-08-01T19:56:23.424Z,100.00
2022-08-01T19:58:52.855Z,100.00
2022-08-01T20:01:27.589Z,100.00
2022-08-01T20:03:54.456Z,100.00
2022-08-01T20:06:24.561Z,100.00
2022-08-01T20:08:54.584Z,100.00
2022-08-01T20:11:24.490Z,100.00
2022-08-01T20:13:51.747Z,100.00
2022-08-01T20:16:18.898Z,100.00
2022-08-01T20:18:47.066Z,100.00
2022-08-01T20:21:14.231Z,100.00
2022-08-01T20:23:44.599Z,100.00
2022-08-01T20:26:13.082Z,100.00
2022-08-01T20:28:41.933Z,100.00
2022-08-01T20:31:10.248Z,100.00
2022-08-01T20:33:42.623Z,100.00
2022-08-01T20:36:25.630Z,100.00
2022-08-01T20:38:56.818Z,100.00
2022-08-01T20:41:27.267Z,100.00
2022-08-01T20:43:57.026Z,100.00
2022-08-01T20:46:28.121Z,100.00
2022-08-01T20:48:59.299Z,100.00
2022-08-01T20:51:27.670Z,100.00
2022-08-01T20:53:55.493Z,100.00
2022-08-01T20:56:27.949Z,100.00
2022-08-01T20:58:58.577Z,100.00
2022-08-01T21:01:33.134Z,100.00
2022-08-01T21:04:11.120Z,100.00
2022-08-01T21:06:42.233Z,100.00
2022-08-01T21:09:10.498Z,100.00
2022-08-01T21:11:40.495Z,100.00
2022-08-01T21:14:13.004Z,100.00
2022-08-01T21:16:43.735Z,100.00
2022-08-01T21:19:21.740Z,100.00
2022-08-01T21:21:51.904Z,100.00
2022-08-01T21:24:19.508Z,100.00
2022-08-01T21:26:46.691Z,100.00
2022-08-01T21:29:13.952Z,100.00
2022-08-01T21:31:41.952Z,100.00
2022-08-01T21:34:09.061Z,100.00
2022-08-01T21:36:36.342Z,100.00
2022-08-01T21:39:05.645Z,100.00
2022-08-01T21:42:03.328Z,100.00
2022-08-01T21:44:21.095Z,100.00
2022-08-01T21:46:48.558Z,100.00
2022-08-01T21:49:18.324Z,100.00
2022-08-01T21:51:51.695Z,100.00
2022-08-01T21:54:40.890Z,100.00
2022-08-01T21:57:18.044Z,100.00
2022-08-01T22:00:12.687Z,100.00
2022-08-01T22:02:57.755Z,100.00
2022-08-01T22:05:49.682Z,100.00
2022-08-01T22:08:24.040Z,100.00
2022-08-01T22:11:00.032Z,100.00
2022-08-01T22:13:26.869Z,100.00
2022-08-01T22:15:56.203Z,100.00
2022-08-01T22:18:23.153Z,100.00
2022-08-01T22:20:51.380Z,100.00
2022-08-01T22:23:21.638Z,100.00
2022-08-01T22:25:51.645Z,100.00
2022-08-01T22:28:20.309Z,100.00
2022-08-01T22:30:52.003Z,100.00
2022-08-01T22:33:19.270Z,100.00
2022-08-01T22:35:50.947Z,100.00
2022-08-01T22:38:19.482Z,100.00
2022-08-01T22:40:50.274Z,100.00
2022-08-01T22:43:26.220Z,100.00
2022-08-01T22:46:14.663Z,100.00
2022-08-01T22:48:51.813Z,100.00
2022-08-01T22:51:43.922Z,100.00
2022-08-01T22:54:35.471Z,100.00
2022-08-01T22:57:07.229Z,100.00
2022-08-01T23:00:02.022Z,100.00
2022-08-01T23:02:29.125Z,100.00
2022-08-01T23:05:01.098Z,100.00
2022-08-01T23:07:35.562Z,100.00
2022-08-01T23:10:05.751Z,100.00
2022-08-01T23:12:34.424Z,100.00
2022-08-01T23:15:01.895Z,100.00
2022-08-01T23:17:30.691Z,100.00
2022-08-01T23:20:02.183Z,100.00
2022-08-01T23:22:33.401Z,100.00
2022-08-01T23:25:05.426Z,100.00
2022-08-01T23:27:51.255Z,100.00
2022-08-01T23:30:28.279Z,100.00
2022-08-01T23:32:55.009Z,100.00
2022-08-01T23:35:21.884Z,100.00
2022-08-01T23:37:51.006Z,100.00
2022-08-01T23:40:18.453Z,100.00
2022-08-01T23:42:45.224Z,100.00
2022-08-01T23:45:11.832Z,100.00
2022-08-01T23:47:38.511Z,100.00
2022-08-01T23:50:07.581Z,100.00
2022-08-01T23:52:34.302Z,100.00
2022-08-01T23:55:11.579Z,100.00
2022-08-01T23:57:42.339Z,100.00
